Time;durP1;ratioP1;P1;durP2;ratioP2;P2;SDS_P1;SDS_P2;PMS_P1;PMS_P2;Temp;Humidity;BMP_temperature;BMP_pressure;BME280_temperature;BME280_humidity;BME280_pressure;Samples;Min_cycle;Max_cycle;Signal;HPM_P1;HPM_P2
2022/08/21 00:01:03;;;;;;;6.15;4.53;;;;;;;17.36;69.01;101569.97;5113375;27;20051;-56
2022/08/21 00:03:30;;;;;;;9.43;5.07;;;;;;;17.53;69.06;101581.19;5113652;28;20024;-56
2022/08/21 00:05:55;;;;;;;6.20;4.60;;;;;;;17.44;68.82;101581.00;5113586;28;20499;-56
2022/08/21 00:08:21;;;;;;;8.18;4.60;;;;;;;17.45;69.03;101581.84;5129366;27;20110;-56
2022/08/21 00:10:48;;;;;;;8.15;4.50;;;;;;;17.46;68.84;101568.25;5113605;28;20102;-56
2022/08/21 00:13:14;;;;;;;6.05;4.90;;;;;;;17.31;69.31;101569.50;5113349;28;20030;-56
2022/08/21 00:15:41;;;;;;;5.85;4.50;;;;;;;17.37;69.25;101578.91;5112116;28;20027;-56
2022/08/21 00:18:08;;;;;;;5.53;4.20;;;;;;;17.19;69.82;101573.16;5146585;27;20363;-56
2022/08/21 00:20:34;;;;;;;7.10;5.20;;;;;;;17.23;69.89;101571.94;5113368;28;20026;-56
2022/08/21 00:23:00;;;;;;;8.15;5.18;;;;;;;17.27;70.07;101573.41;5113270;28;20106;-56
2022/08/21 00:25:26;;;;;;;8.70;5.63;;;;;;;17.16;70.59;101576.94;5113276;28;20059;-56
2022/08/21 00:27:53;;;;;;;8.18;4.85;;;;;;;17.19;70.13;101568.63;5112680;28;20027;-56
2022/08/21 00:30:21;;;;;;;8.00;5.10;;;;;;;17.17;70.04;101573.28;5111824;28;20022;-56
2022/08/21 00:32:46;;;;;;;12.93;5.13;;;;;;;17.18;70.08;101574.16;5111840;28;20032;-56
2022/08/21 00:35:15;;;;;;;6.88;5.50;;;;;;;17.09;70.35;101564.97;5129141;27;20034;-56
2022/08/21 00:37:41;;;;;;;7.35;5.47;;;;;;;17.08;70.27;101562.41;5111927;28;20088;-56
2022/08/21 00:40:15;;;;;;;9.25;5.30;;;;;;;17.04;70.31;101564.47;5112973;28;20485;-56
2022/08/21 00:42:42;;;;;;;7.18;5.20;;;;;;;17.05;70.34;101557.28;5112872;28;20034;-56
2022/08/21 00:45:08;;;;;;;10.43;5.65;;;;;;;16.89;70.76;101554.94;5112546;28;20034;-56
2022/08/21 00:47:33;;;;;;;8.20;5.22;;;;;;;16.83;71.18;101552.75;5113146;28;20106;-56
2022/08/21 00:50:04;;;;;;;11.52;6.05;;;;;;;16.78;71.44;101556.63;5111489;28;20042;-56
2022/08/21 00:52:35;;;;;;;9.35;5.75;;;;;;;16.90;71.07;101556.66;5112971;28;20046;-56
2022/08/21 00:55:02;;;;;;;8.00;6.13;;;;;;;16.73;71.52;101556.09;5112478;28;20024;-56
2022/08/21 00:57:42;;;;;;;7.85;5.40;;;;;;;16.73;71.53;101557.91;5111547;28;20436;-56
2022/08/21 01:00:14;;;;;;;;;;;;;;;17.03;69.20;101566.31;5111415;28;20020;-56
2022/08/21 01:02:41;;;;;;;8.57;6.20;;;;;;;16.73;71.35;101548.03;5113019;28;19908;-56
2022/08/21 01:05:09;;;;;;;8.15;5.72;;;;;;;16.80;71.20;101561.91;5111464;28;20152;-56
2022/08/21 01:07:35;;;;;;;8.17;5.80;;;;;;;16.87;70.70;101549.69;5145400;27;20234;-56
2022/08/21 01:10:04;;;;;;;9.10;5.63;;;;;;;16.72;71.21;101545.47;5112240;28;20262;-55
2022/08/21 01:12:31;;;;;;;10.45;5.65;;;;;;;16.76;70.98;101555.88;5112431;28;20027;-56
2022/08/21 01:14:58;;;;;;;7.63;5.60;;;;;;;16.69;71.31;101559.16;5110471;28;20023;-56
2022/08/21 01:17:24;;;;;;;8.23;5.55;;;;;;;16.76;71.04;101563.09;5111151;28;20084;-56
2022/08/21 01:19:49;;;;;;;10.07;6.00;;;;;;;16.75;71.15;101558.66;5112199;28;20020;-56
2022/08/21 01:22:15;;;;;;;6.70;5.75;;;;;;;16.77;71.04;101552.25;5112536;28;20054;-56
2022/08/21 01:24:41;;;;;;;9.68;6.05;;;;;;;16.60;71.40;101557.19;5112476;28;20375;-56
2022/08/21 01:27:06;;;;;;;7.07;5.80;;;;;;;16.76;70.95;101550.50;5110993;28;20038;-56
2022/08/21 01:29:38;;;;;;;9.75;5.82;;;;;;;16.52;71.78;101544.31;5111423;28;20036;-56
2022/08/21 01:32:09;;;;;;;8.02;5.88;;;;;;;16.57;71.32;101547.53;5112193;28;20103;-56
2022/08/21 01:34:38;;;;;;;8.45;6.20;;;;;;;16.52;71.17;101552.38;5112276;28;20061;-56
2022/08/21 01:37:04;;;;;;;6.70;6.00;;;;;;;16.43;71.49;101536.97;5110780;28;20020;-56
2022/08/21 01:39:29;;;;;;;6.80;5.95;;;;;;;16.55;71.31;101546.78;5111951;28;20030;-56
2022/08/21 01:41:55;;;;;;;9.80;6.05;;;;;;;16.55;71.29;101555.69;5110496;28;20032;-56
2022/08/21 01:44:24;;;;;;;7.95;6.15;;;;;;;16.45;71.39;101556.53;5111302;28;20039;-56
2022/08/21 01:46:51;;;;;;;8.95;6.28;;;;;;;16.46;71.21;101545.66;5111951;28;20037;-56
2022/08/21 01:49:17;;;;;;;7.38;5.97;;;;;;;16.51;71.29;101553.38;5112031;28;20033;-56
2022/08/21 01:51:43;;;;;;;9.65;6.30;;;;;;;16.46;71.39;101553.72;5112320;28;20028;-57
2022/08/21 01:54:11;;;;;;;9.10;5.95;;;;;;;16.35;71.71;101546.50;5110553;28;20392;-56
2022/08/21 01:56:44;;;;;;;10.37;6.27;;;;;;;16.38;71.42;101540.00;5114531;28;20052;-56
2022/08/21 01:59:10;;;;;;;10.35;6.93;;;;;;;16.39;71.70;101536.38;5116069;28;20257;-56
2022/08/21 02:01:36;;;;;;;11.75;7.88;;;;;;;16.38;71.93;101542.69;5116105;28;20493;-56
2022/08/21 02:04:03;;;;;;;9.68;7.13;;;;;;;16.29;71.98;101538.88;5115828;28;20024;-56
2022/08/21 02:06:28;;;;;;;9.70;6.88;;;;;;;16.30;71.70;101537.06;5114883;28;20024;-56
2022/08/21 02:08:54;;;;;;;11.43;7.30;;;;;;;16.24;71.86;101533.03;5115471;28;20027;-56
2022/08/21 02:11:19;;;;;;;9.35;7.20;;;;;;;16.30;71.58;101532.56;5115679;28;20417;-56
2022/08/21 02:13:45;;;;;;;8.18;6.43;;;;;;;16.26;71.62;101528.38;5114253;28;20027;-56
2022/08/21 02:16:11;;;;;;;8.10;6.43;;;;;;;16.28;71.31;101526.44;5149440;27;20033;-56
2022/08/21 02:18:37;;;;;;;10.75;7.20;;;;;;;16.23;71.81;101520.56;5115852;28;20020;-56
2022/08/21 02:21:03;;;;;;;9.57;7.03;;;;;;;16.21;71.83;101506.41;5115649;28;20031;-56
2022/08/21 02:23:29;;;;;;;8.20;6.70;;;;;;;16.15;72.13;101523.00;5115623;28;20031;-56
2022/08/21 02:26:00;;;;;;;9.50;6.78;;;;;;;16.18;71.69;101520.06;5115539;28;20022;-56
2022/08/21 02:28:26;;;;;;;8.50;6.50;;;;;;;16.16;71.30;101531.91;5115198;28;20110;-56
2022/08/21 02:30:52;;;;;;;9.10;7.00;;;;;;;16.06;71.89;101535.28;5115431;28;20058;-56
2022/08/21 02:33:18;;;;;;;8.38;6.97;;;;;;;15.90;72.58;101534.69;5115508;28;20561;-56
2022/08/21 02:35:45;;;;;;;11.27;7.72;;;;;;;15.88;72.77;101526.78;5115732;28;20177;-56
2022/08/21 02:38:17;;;;;;;10.52;7.32;;;;;;;15.85;73.03;101535.06;5148362;27;20078;-56
2022/08/21 02:40:46;;;;;;;8.45;7.00;;;;;;;15.73;73.50;101532.41;5114167;28;20027;-56
2022/08/21 02:43:12;;;;;;;10.32;7.15;;;;;;;15.62;73.53;101525.16;5115223;27;20024;-56
2022/08/21 02:45:40;;;;;;;9.48;7.38;;;;;;;15.79;73.13;101530.13;5115425;28;20446;-56
2022/08/21 02:48:14;;;;;;;10.82;7.68;;;;;;;15.72;73.36;101531.56;5115100;28;20023;-56
2022/08/21 02:50:43;;;;;;;11.88;7.90;;;;;;;15.53;74.24;101523.09;5113829;28;20408;-56
2022/08/21 02:53:10;;;;;;;10.10;8.18;;;;;;;15.62;73.94;101526.00;5114096;28;20054;-56
2022/08/21 02:55:37;;;;;;;12.23;8.45;;;;;;;15.57;74.11;101527.28;5114952;27;20097;-56
2022/08/21 02:58:06;;;;;;;9.23;7.90;;;;;;;15.58;74.36;101520.94;5114300;27;20467;-56
2022/08/21 03:00:33;;;;;;;10.80;8.80;;;;;;;15.50;74.45;101524.22;5115121;28;20022;-56
2022/08/21 03:02:59;;;;;;;10.10;8.45;;;;;;;15.45;74.85;101529.06;5114797;28;20076;-56
2022/08/21 03:05:27;;;;;;;12.27;9.38;;;;;;;15.50;74.35;101520.66;5114967;28;20024;-56
2022/08/21 03:07:54;;;;;;;13.50;9.20;;;;;;;15.50;74.53;101520.66;5114592;28;20114;-56
2022/08/21 03:10:20;;;;;;;13.40;9.68;;;;;;;15.54;73.91;101523.00;5096393;28;20027;-56
2022/08/21 03:12:48;;;;;;;12.02;9.18;;;;;;;15.53;74.15;101518.63;5114233;28;20027;-56
2022/08/21 03:15:17;;;;;;;11.18;9.30;;;;;;;15.51;74.09;101519.69;5113808;28;20072;-56
2022/08/21 03:17:44;;;;;;;15.18;10.52;;;;;;;15.50;74.49;101515.28;5114673;28;20027;-56
2022/08/21 03:20:10;;;;;;;13.35;9.88;;;;;;;15.43;74.35;101517.56;5114690;28;20020;-56
2022/08/21 03:22:36;;;;;;;10.45;8.55;;;;;;;15.32;75.10;101523.69;5113469;28;20108;-56
2022/08/21 03:25:02;;;;;;;12.30;10.20;;;;;;;15.29;75.07;101515.88;5114133;28;20081;-55
2022/08/21 03:27:30;;;;;;;13.52;9.50;;;;;;;15.27;74.97;101517.84;5113276;28;20027;-56
2022/08/21 03:29:58;;;;;;;12.43;8.90;;;;;;;15.36;74.83;101517.16;5113889;27;20398;-56
2022/08/21 03:32:27;;;;;;;13.00;9.02;;;;;;;15.27;74.79;101520.53;5113184;28;20032;-56
2022/08/21 03:34:52;;;;;;;15.32;9.95;;;;;;;15.28;74.83;101514.19;5114246;28;20066;-56
2022/08/21 03:37:18;;;;;;;14.73;9.90;;;;;;;15.28;74.56;101516.84;5096235;28;20056;-56
2022/08/21 03:39:44;;;;;;;13.20;9.15;;;;;;;15.25;74.79;101514.41;5114065;28;20388;-56
2022/08/21 03:42:11;;;;;;;11.85;9.02;;;;;;;15.25;74.68;101514.41;5114664;28;20032;-56
2022/08/21 03:44:37;;;;;;;11.85;9.07;;;;;;;15.18;74.68;101508.63;5113046;28;20072;-56
2022/08/21 03:47:03;;;;;;;12.95;9.48;;;;;;;15.20;74.93;101503.16;5114174;28;20058;-56
2022/08/21 03:49:31;;;;;;;13.32;9.10;;;;;;;15.14;75.38;101508.94;5113145;28;20032;-56
2022/08/21 03:51:56;;;;;;;12.43;9.25;;;;;;;15.10;74.89;101502.97;5113998;28;20027;-56
2022/08/21 03:54:22;;;;;;;12.75;8.95;;;;;;;15.07;74.92;101499.66;5129646;27;20500;-56
2022/08/21 03:56:49;;;;;;;14.90;9.52;;;;;;;14.93;74.94;101500.63;5112520;28;20058;-56
2022/08/21 03:59:14;;;;;;;13.90;8.98;;;;;;;14.92;75.27;101499.78;5113394;28;20031;-56
2022/08/21 04:01:52;;;;;;;12.63;9.30;;;;;;;14.86;75.63;101499.38;5114187;28;20028;-56
2022/08/21 04:04:17;;;;;;;13.93;8.85;;;;;;;14.95;76.09;101504.06;5112478;28;20016;-56
2022/08/21 04:06:43;;;;;;;15.63;9.38;;;;;;;14.82;76.97;101504.06;5113817;27;20069;-56
2022/08/21 04:09:11;;;;;;;12.20;9.00;;;;;;;14.80;76.35;101511.38;5146577;27;20028;-55
2022/08/21 04:11:39;;;;;;;11.43;9.02;;;;;;;14.72;76.20;101497.66;5112353;28;20030;-56
2022/08/21 04:14:04;;;;;;;12.32;8.77;;;;;;;14.75;76.64;101508.13;5111627;28;20027;-56
2022/08/21 04:16:30;;;;;;;13.75;9.75;;;;;;;14.70;77.40;101512.94;5112325;28;20053;-56
2022/08/21 04:18:56;;;;;;;10.18;8.98;;;;;;;14.59;77.77;101507.47;5111488;28;20032;-56
2022/08/21 04:21:23;;;;;;;13.48;8.80;;;;;;;14.67;77.99;101510.50;5113246;28;20088;-56
2022/08/21 04:23:48;;;;;;;15.10;9.00;;;;;;;14.72;77.59;101519.06;5113196;28;20428;-56
2022/08/21 04:26:14;;;;;;;13.55;9.60;;;;;;;14.62;78.01;101516.19;5146828;27;20027;-56
2022/08/21 04:28:40;;;;;;;10.85;9.15;;;;;;;14.62;78.34;101518.88;5145880;27;20039;-56
2022/08/21 04:31:06;;;;;;;16.13;9.63;;;;;;;14.65;78.22;101521.31;5113302;28;20015;-56
2022/08/21 04:33:31;;;;;;;12.05;8.75;;;;;;;14.57;78.58;101521.00;5111929;28;20108;-56
2022/08/21 04:35:57;;;;;;;10.32;9.23;;;;;;;14.72;78.23;101524.44;5111540;28;20090;-56
2022/08/21 04:38:23;;;;;;;10.60;8.75;;;;;;;14.62;78.19;101521.53;5112826;28;20072;-56
2022/08/21 04:40:49;;;;;;;14.82;9.88;;;;;;;14.69;78.28;101532.66;5145869;27;20035;-55
2022/08/21 04:43:15;;;;;;;14.82;9.57;;;;;;;14.69;77.91;101527.31;5112924;28;20398;-56
2022/08/21 04:45:47;;;;;;;15.90;9.55;;;;;;;14.64;78.41;101527.63;5094977;28;20028;-56
2022/08/21 04:48:14;;;;;;;12.00;8.85;;;;;;;14.64;78.20;101532.13;5113180;28;20410;-56
2022/08/21 04:50:54;;;;;;;13.07;8.63;;;;;;;14.62;78.26;101523.34;5111218;28;20035;-56
2022/08/21 04:53:35;;;;;;;11.07;8.55;;;;;;;14.68;77.83;101528.28;5112966;28;20023;-55
2022/08/21 04:56:08;;;;;;;11.05;8.60;;;;;;;14.51;78.56;101519.59;5112464;28;20028;-55
2022/08/21 04:58:35;;;;;;;12.68;9.15;;;;;;;14.62;78.40;101529.56;5112327;28;20051;-56
2022/08/21 05:01:04;;;;;;;11.05;8.52;;;;;;;14.66;78.17;101532.88;5112469;27;20020;-56
2022/08/21 05:03:35;;;;;;;15.70;8.88;;;;;;;14.60;78.52;101539.53;5111167;28;20135;-56
2022/08/21 05:06:04;;;;;;;12.88;9.07;;;;;;;14.57;78.53;101528.16;5112252;28;20030;-56
2022/08/21 05:08:30;;;;;;;11.48;9.07;;;;;;;14.59;78.66;101534.25;5112393;28;20076;-56
2022/08/21 05:10:58;;;;;;;13.50;8.60;;;;;;;14.57;78.45;101531.69;5112336;28;20031;-56
2022/08/21 05:13:24;;;;;;;10.55;7.93;;;;;;;14.57;78.58;101538.88;5111936;28;20027;-56
2022/08/21 05:15:49;;;;;;;14.43;8.80;;;;;;;14.53;78.63;101546.28;5111059;28;20051;-56
2022/08/21 05:18:16;;;;;;;13.10;8.43;;;;;;;14.43;78.72;101521.91;5112173;28;20031;-56
2022/08/21 05:20:41;;;;;;;13.00;8.45;;;;;;;14.55;78.86;101541.66;5110949;28;20106;-56
2022/08/21 05:23:10;;;;;;;12.82;8.10;;;;;;;14.56;79.32;101546.06;5112079;28;20768;-56
2022/08/21 05:25:37;;;;;;;14.47;8.20;;;;;;;14.54;79.17;101556.00;5112445;28;20051;-56
2022/08/21 05:28:03;;;;;;;15.75;8.00;;;;;;;14.57;78.94;101555.78;5111683;28;20283;-55
2022/08/21 05:30:29;;;;;;;11.73;8.20;;;;;;;14.68;78.89;101553.25;5111301;28;20053;-56
2022/08/21 05:32:59;;;;;;;12.48;8.23;;;;;;;14.68;79.08;101550.56;5093687;28;20023;-56
2022/08/21 05:35:26;;;;;;;11.50;7.50;;;;;;;14.76;78.70;101553.56;5110561;28;20486;-56
2022/08/21 05:37:52;;;;;;;13.55;7.10;;;;;;;14.92;78.66;101549.81;5112185;28;20027;-56
2022/08/21 05:40:18;;;;;;;12.95;7.22;;;;;;;14.91;78.33;101548.09;5112103;28;20523;-56
2022/08/21 05:42:43;;;;;;;14.10;7.68;;;;;;;15.00;77.74;101552.81;5111616;28;20137;-56
2022/08/21 05:45:09;;;;;;;9.80;7.18;;;;;;;15.05;77.68;101552.47;5110762;28;20066;-56
2022/08/21 05:47:35;;;;;;;11.45;7.38;;;;;;;15.07;77.83;101558.59;5111961;28;20054;-56
2022/08/21 05:50:00;;;;;;;9.57;6.90;;;;;;;15.11;77.64;101560.09;5111539;28;20482;-56
2022/08/21 05:52:26;;;;;;;12.43;6.80;;;;;;;15.17;77.08;101560.50;5112158;28;20360;-56
2022/08/21 05:54:53;;;;;;;18.10;7.53;;;;;;;15.20;77.29;101556.75;5111387;28;20096;-56
2022/08/21 05:57:19;;;;;;;13.55;6.85;;;;;;;15.20;77.55;101559.44;5110897;28;20487;-56
2022/08/21 05:59:45;;;;;;;13.23;6.65;;;;;;;15.29;77.48;101549.88;5110316;28;20031;-56
2022/08/21 06:02:11;;;;;;;13.38;7.32;;;;;;;15.25;77.59;101557.28;5093690;28;20035;-56
2022/08/21 06:04:40;;;;;;;12.45;7.03;;;;;;;15.33;78.03;101556.75;5111650;28;20030;-56
2022/08/21 06:07:08;;;;;;;12.73;6.47;;;;;;;15.41;77.75;101554.34;5145118;27;20024;-56
2022/08/21 06:09:39;;;;;;;11.37;6.27;;;;;;;15.50;77.32;101556.38;5111876;28;20143;-56
2022/08/21 06:12:05;;;;;;;14.77;7.38;;;;;;;15.64;76.68;101556.22;5111798;28;20023;-56
2022/08/21 06:14:31;;;;;;;13.18;7.18;;;;;;;15.71;76.85;101559.34;5109991;28;20030;-56
2022/08/21 06:17:05;;;;;;;13.38;6.75;;;;;;;15.69;77.10;101563.13;5111745;28;20062;-56
2022/08/21 06:19:31;;;;;;;12.27;6.63;;;;;;;15.87;76.90;101567.13;5111412;28;20439;-56
2022/08/21 06:21:57;;;;;;;13.77;7.32;;;;;;;15.92;76.29;101564.97;5110618;28;20118;-56
2022/08/21 06:24:23;;;;;;;16.75;7.32;;;;;;;15.87;77.03;101559.94;5110373;28;20474;-56
2022/08/21 06:26:49;;;;;;;10.88;6.78;;;;;;;15.92;76.73;101566.78;5111760;28;20044;-56
2022/08/21 06:29:16;;;;;;;11.35;6.85;;;;;;;16.11;76.67;101557.22;5110026;28;20365;-56
2022/08/21 06:31:43;;;;;;;11.70;6.10;;;;;;;16.23;76.57;101555.44;5127412;28;20028;-56
2022/08/21 06:34:09;;;;;;;13.05;6.35;;;;;;;16.32;76.61;101557.47;5111456;28;20015;-56
2022/08/21 06:36:35;;;;;;;11.38;6.43;;;;;;;16.42;76.61;101562.97;5111820;28;20023;-56
2022/08/21 06:39:01;;;;;;;12.15;6.00;;;;;;;16.44;76.47;101561.03;5111356;28;20023;-56
2022/08/21 06:41:27;;;;;;;12.82;6.15;;;;;;;16.50;76.47;101560.56;5112262;28;20456;-56
2022/08/21 06:43:56;;;;;;;9.88;6.15;;;;;;;16.64;76.49;101567.53;5114278;28;20397;-56
2022/08/21 06:46:24;;;;;;;10.48;6.55;;;;;;;16.82;75.98;101564.44;5115378;28;20084;-56
2022/08/21 06:48:49;;;;;;;10.40;5.97;;;;;;;16.93;75.50;101564.47;5113866;28;20027;-56
2022/08/21 06:51:15;;;;;;;10.65;6.10;;;;;;;17.02;75.33;101567.28;5115365;28;20023;-56
2022/08/21 06:53:41;;;;;;;9.65;5.40;;;;;;;17.09;74.84;101564.09;5114941;28;20038;-55
2022/08/21 06:56:06;;;;;;;10.68;5.43;;;;;;;17.16;75.64;101576.09;5115146;28;20066;-56
2022/08/21 06:58:32;;;;;;;10.27;5.80;;;;;;;17.24;74.64;101566.44;5113063;28;20107;-56
2022/08/21 07:00:58;;;;;;;13.52;6.10;;;;;;;17.37;74.68;101566.31;5147830;27;20030;-56
2022/08/21 07:03:37;;;;;;;13.25;6.18;;;;;;;17.45;74.34;101571.09;5113548;28;20040;-56
2022/08/21 07:06:05;;;;;;;14.35;6.22;;;;;;;17.46;74.32;101564.72;5115021;28;20024;-56
2022/08/21 07:08:31;;;;;;;13.25;6.10;;;;;;;17.54;74.32;101564.09;5114799;28;20470;-56
2022/08/21 07:10:59;;;;;;;11.85;6.05;;;;;;;17.67;74.19;101565.66;5114510;28;20039;-56
2022/08/21 07:13:25;;;;;;;13.05;5.82;;;;;;;17.79;74.19;101558.44;5113041;28;20012;-56
2022/08/21 07:15:51;;;;;;;19.38;6.00;;;;;;;18.01;74.15;101559.38;5147387;27;20393;-56
2022/08/21 07:18:17;;;;;;;16.83;5.93;;;;;;;18.15;73.67;101561.78;5114524;28;20023;-56
2022/08/21 07:20:45;;;;;;;13.88;5.72;;;;;;;18.42;73.43;101563.13;5114654;28;20043;-56
2022/08/21 07:23:30;;;;;;;13.18;6.05;;;;;;;18.50;73.06;101563.31;5113435;28;20028;-56
2022/08/21 07:25:55;;;;;;;15.98;7.03;;;;;;;18.45;72.72;101561.03;5114423;28;20023;-56
2022/08/21 07:28:20;;;;;;;16.30;6.15;;;;;;;18.48;72.69;101562.59;5113856;28;20046;-56
2022/08/21 07:30:51;;;;;;;12.55;5.82;;;;;;;18.51;72.89;101565.88;5114183;28;20471;-56
2022/08/21 07:33:17;;;;;;;17.13;6.47;;;;;;;18.54;72.98;101556.69;5112897;28;20463;-56
2022/08/21 07:35:42;;;;;;;16.75;6.13;;;;;;;18.47;73.03;101559.06;5114502;28;20031;-56
2022/08/21 07:38:08;;;;;;;16.25;6.28;;;;;;;18.51;72.90;101560.50;5095509;28;20394;-56
2022/08/21 07:40:33;;;;;;;17.60;6.40;;;;;;;18.57;73.22;101556.44;5114213;28;20035;-56
2022/08/21 07:42:59;;;;;;;17.88;6.10;;;;;;;18.67;72.89;101554.63;5112762;28;20457;-56
2022/08/21 07:45:26;;;;;;;13.05;5.80;;;;;;;18.71;72.36;101561.50;5113899;28;20040;-56
2022/08/21 07:47:51;;;;;;;16.48;5.85;;;;;;;18.89;72.14;101559.06;5129825;27;20027;-56
2022/08/21 07:50:18;;;;;;;13.57;5.45;;;;;;;18.97;71.93;101561.06;5114009;28;20474;-56
2022/08/21 07:52:44;;;;;;;14.15;5.43;;;;;;;18.98;71.10;101555.56;5113075;28;20028;-56
2022/08/21 07:55:16;;;;;;;14.27;6.03;;;;;;;19.00;71.46;101547.31;5112283;28;20046;-56
2022/08/21 07:57:41;;;;;;;17.00;6.57;;;;;;;19.05;71.07;101559.41;5113464;28;20052;-56
2022/08/21 08:00:10;;;;;;;13.50;5.68;;;;;;;19.11;70.75;101557.19;5113436;28;20081;-56
2022/08/21 08:02:36;;;;;;;;;;;;;;;19.29;70.44;101555.56;5112916;28;20490;-56
2022/08/21 08:05:09;;;;;;;12.60;5.40;;;;;;;19.36;70.71;101554.03;5113571;28;19958;-56
2022/08/21 08:07:34;;;;;;;14.57;4.97;;;;;;;19.60;70.40;101558.22;5113188;28;20076;-56
2022/08/21 08:10:00;;;;;;;15.68;5.38;;;;;;;19.67;68.86;101557.53;5113632;28;20028;-56
2022/08/21 08:12:29;;;;;;;12.48;5.47;;;;;;;19.68;68.85;101553.03;5113734;28;20098;-56
2022/08/21 08:14:59;;;;;;;13.60;5.40;;;;;;;19.77;68.64;101554.03;5112867;28;20072;-56
2022/08/21 08:17:25;;;;;;;14.85;4.63;;;;;;;20.00;68.69;101546.50;5112416;28;20038;-56
2022/08/21 08:19:51;;;;;;;13.35;5.55;;;;;;;20.07;68.37;101551.22;5112068;28;20028;-56
2022/08/21 08:22:19;;;;;;;9.52;3.88;;;;;;;20.28;68.79;101552.94;5113405;28;20081;-56
2022/08/21 08:24:48;;;;;;;11.10;4.40;;;;;;;20.49;67.21;101544.66;5112271;28;20111;-56
2022/08/21 08:27:14;;;;;;;15.15;4.22;;;;;;;20.55;66.72;101553.06;5113531;28;20023;-56
2022/08/21 08:29:39;;;;;;;14.02;4.38;;;;;;;20.75;65.82;101548.47;5111327;28;20031;-56
2022/08/21 08:32:07;;;;;;;12.15;3.72;;;;;;;20.95;65.22;101549.28;5112092;28;20031;-56
2022/08/21 08:34:33;;;;;;;14.85;4.43;;;;;;;21.06;65.08;101548.22;5113031;28;20094;-56
2022/08/21 08:36:59;;;;;;;12.40;3.85;;;;;;;21.12;64.55;101550.38;5113118;28;20019;-56
2022/08/21 08:39:25;;;;;;;11.82;3.95;;;;;;;21.27;64.21;101546.19;5094643;28;20027;-56
2022/08/21 08:42:07;;;;;;;9.40;3.80;;;;;;;21.36;63.96;101549.00;5111671;28;20386;-56
2022/08/21 08:44:33;;;;;;;14.25;4.00;;;;;;;21.67;63.46;101544.13;5110797;28;20027;-56
2022/08/21 08:47:01;;;;;;;9.32;3.40;;;;;;;21.92;62.92;101540.69;5112858;28;20027;-56
2022/08/21 08:49:29;;;;;;;14.23;3.50;;;;;;;22.23;61.19;101537.59;5113148;28;20431;-56
2022/08/21 08:52:05;;;;;;;10.17;3.73;;;;;;;22.34;61.13;101542.78;5112839;28;20031;-57
2022/08/21 08:54:42;;;;;;;13.20;3.80;;;;;;;22.40;61.36;101525.91;5112777;28;20019;-56
2022/08/21 08:57:14;;;;;;;10.77;3.20;;;;;;;22.32;59.13;101533.94;5112367;28;20051;-56
2022/08/21 08:59:44;;;;;;;10.05;3.03;;;;;;;22.30;59.87;101532.44;5112486;28;20019;-56
2022/08/21 09:02:12;;;;;;;10.77;3.75;;;;;;;22.44;59.69;101532.72;5112639;28;20042;-56
2022/08/21 09:04:39;;;;;;;8.40;2.70;;;;;;;22.32;58.38;101536.66;5111141;28;20053;-56
2022/08/21 09:07:10;;;;;;;8.55;3.03;;;;;;;22.22;58.49;101528.63;5112904;28;20374;-56
2022/08/21 09:10:05;;;;;;;9.02;3.00;;;;;;;22.33;59.41;101527.53;5111016;28;20542;-56
2022/08/21 09:12:52;;;;;;;10.07;2.70;;;;;;;22.37;59.38;101522.66;5111420;28;20051;-56
2022/08/21 09:15:30;;;;;;;9.88;2.60;;;;;;;22.47;58.63;101511.69;5112295;28;20099;-57
2022/08/21 09:18:13;;;;;;;10.18;2.83;;;;;;;22.37;57.97;101512.66;5111016;28;20027;-56
2022/08/21 09:21:32;;;;;;;9.85;2.72;;;;;;;22.20;58.15;101519.78;5112418;28;20019;-56
2022/08/21 09:24:33;;;;;;;10.93;3.30;;;;;;;21.96;59.45;101524.97;5049395;28;20087;-56
2022/08/21 09:27:09;;;;;;;7.18;2.67;;;;;;;21.77;58.97;101523.28;5145225;27;20446;-56
2022/08/21 09:29:38;;;;;;;9.00;2.75;;;;;;;21.54;59.75;101525.56;5110514;28;20504;-56
2022/08/21 09:32:30;;;;;;;;;;;;;;;21.73;59.58;101527.25;5111273;28;20027;-56
2022/08/21 09:35:04;;;;;;;11.02;2.70;;;;;;;21.40;59.13;101523.34;5110063;27;19914;-56
2022/08/21 09:37:32;;;;;;;7.97;2.28;;;;;;;21.62;58.57;101519.34;5112185;28;20385;-56
2022/08/21 09:39:58;;;;;;;5.60;2.53;;;;;;;21.94;57.80;101530.56;5111962;28;20441;-56
2022/08/21 09:42:31;;;;;;;11.43;2.70;;;;;;;22.09;56.14;101525.44;5110583;28;20023;-56
2022/08/21 09:45:17;;;;;;;8.68;2.40;;;;;;;22.32;55.88;101531.25;5111561;28;20426;-56
2022/08/21 09:47:45;;;;;;;8.88;2.28;;;;;;;22.51;54.94;101527.50;5110989;28;20473;-56
2022/08/21 09:50:17;;;;;;;10.15;2.65;;;;;;;22.74;54.70;101522.41;5110891;28;20020;-56
2022/08/21 09:52:47;;;;;;;10.50;2.65;;;;;;;23.07;54.33;101526.19;5112140;28;20069;-57
2022/08/21 09:58:17;;;;;;;8.07;2.40;;;;;;;23.41;52.48;101519.03;5111715;28;20055;-57
2022/08/21 10:00:43;;;;;;;7.68;2.40;;;;;;;23.51;51.96;101514.31;5110869;28;20031;-57
2022/08/21 10:03:10;;;;;;;8.52;2.75;;;;;;;23.77;51.67;101522.41;5111574;28;20385;-56
2022/08/21 10:05:37;;;;;;;9.95;2.90;;;;;;;23.74;50.29;101518.16;5110614;28;20032;-57
2022/08/21 10:08:16;;;;;;;6.93;2.10;;;;;;;23.67;51.25;101500.78;5112138;28;20102;-56
2022/08/21 10:10:42;;;;;;;10.40;2.17;;;;;;;23.66;48.72;101517.25;5110619;28;20012;-56
2022/08/21 10:13:28;;;;;;;7.57;1.85;;;;;;;23.77;50.08;101509.66;5111318;28;20536;-57
2022/08/21 10:16:14;;;;;;;7.75;2.47;;;;;;;23.84;50.55;101506.28;5094721;28;20055;-57
2022/08/21 10:18:51;;;;;;;8.70;2.53;;;;;;;23.76;50.23;101512.53;5115763;28;20558;-56
2022/08/21 10:21:20;;;;;;;11.75;2.80;;;;;;;23.78;50.28;101515.94;5115776;28;20032;-57
2022/08/21 10:23:51;;;;;;;11.57;2.38;;;;;;;23.86;51.32;101513.25;5115957;28;20393;-56
2022/08/21 10:26:19;;;;;;;11.93;2.72;;;;;;;23.89;50.92;101515.63;5115655;28;20161;-56
2022/08/21 10:29:14;;;;;;;4.45;2.10;;;;;;;24.09;50.77;101513.44;5115280;28;20027;-57
2022/08/21 10:31:52;;;;;;;7.32;2.60;;;;;;;24.41;49.13;101520.75;5114367;28;20426;-56
2022/08/21 10:34:34;;;;;;;6.22;2.42;;;;;;;24.58;48.86;101509.88;5115501;28;20165;-56
2022/08/21 10:37:05;;;;;;;9.13;2.20;;;;;;;24.29;47.67;101513.09;5114206;28;20023;-57
2022/08/21 10:39:34;;;;;;;10.95;2.55;;;;;;;23.98;49.22;101513.78;5115139;28;20489;-56
2022/08/21 10:42:05;;;;;;;8.70;2.80;;;;;;;23.84;49.80;101515.28;5115333;28;20024;-56
2022/08/21 10:44:49;;;;;;;6.20;2.95;;;;;;;23.74;49.11;101520.03;5114994;28;20032;-57
2022/08/21 10:47:17;;;;;;;7.55;2.50;;;;;;;23.88;48.06;101519.34;5114505;28;20028;-56
2022/08/21 10:50:10;;;;;;;8.48;2.75;;;;;;;24.14;49.38;101516.47;5115308;28;20046;-56
2022/08/21 10:53:13;;;;;;;8.57;2.55;;;;;;;24.11;48.46;101518.69;5115083;27;20031;-57
2022/08/21 10:56:04;;;;;;;8.73;2.60;;;;;;;24.24;49.21;101508.19;5113804;28;20515;-56
2022/08/21 10:58:56;;;;;;;11.43;2.97;;;;;;;24.39;48.33;101508.34;5114509;28;20066;-57
2022/08/21 11:01:38;;;;;;;9.32;2.65;;;;;;;24.22;48.32;101500.19;5107965;28;20066;-56
2022/08/21 11:04:28;;;;;;;7.43;2.53;;;;;;;24.12;48.67;101504.94;5113500;28;20031;-56
2022/08/21 11:07:01;;;;;;;7.32;2.58;;;;;;;23.95;48.49;101512.22;5114992;28;20024;-56
2022/08/21 11:09:27;;;;;;;6.95;2.50;;;;;;;23.95;48.67;101501.38;5114747;27;20027;-56
2022/08/21 11:12:03;;;;;;;7.25;3.05;;;;;;;24.12;49.06;101504.06;5114899;28;20047;-57
2022/08/21 11:14:56;;;;;;;7.45;2.92;;;;;;;24.54;48.30;101509.38;5114338;28;20084;-56
2022/08/21 11:17:34;;;;;;;7.30;2.95;;;;;;;24.77;47.35;101508.66;5113397;28;20054;-56
2022/08/21 11:20:07;;;;;;;8.37;3.17;;;;;;;24.56;47.02;101510.06;5113229;28;20130;-56
2022/08/21 11:22:40;;;;;;;9.43;2.67;;;;;;;24.79;46.82;101507.44;5114550;28;20070;-56
2022/08/21 11:25:41;;;;;;;8.32;2.42;;;;;;;24.78;44.80;101508.47;5114396;28;20027;-57
2022/08/21 11:28:12;;;;;;;6.93;2.45;;;;;;;25.11;45.31;101498.31;5034403;28;20032;-57
2022/08/21 11:30:56;;;;;;;7.28;2.47;;;;;;;25.65;43.61;101497.56;5099649;28;20035;-57
2022/08/21 11:33:55;;;;;;;7.80;2.35;;;;;;;26.04;44.03;101496.66;5113036;28;20023;-56
2022/08/21 11:36:41;;;;;;;8.45;2.38;;;;;;;26.34;41.66;101497.56;5112919;28;20012;-57